createdAt,value
2022-12-25T00:01:48.932Z,2.10
2022-12-25T00:04:15.489Z,2.07
2022-12-25T00:06:42.021Z,2.17
2022-12-25T00:09:08.511Z,2.14
2022-12-25T00:11:35.099Z,2.12
2022-12-25T00:14:01.761Z,2.33
2022-12-25T00:16:28.491Z,2.25
2022-12-25T00:18:56.741Z,2.33
2022-12-25T00:21:23.359Z,2.47
2022-12-25T00:23:54.573Z,2.53
2022-12-25T00:26:21.195Z,2.58
2022-12-25T00:28:47.933Z,2.68
2022-12-25T00:31:16.940Z,2.61
2022-12-25T00:33:46.840Z,2.51
2022-12-25T00:36:15.479Z,2.54
2022-12-25T00:38:43.028Z,2.59
2022-12-25T00:41:14.250Z,2.61
2022-12-25T00:43:44.520Z,2.57
2022-12-25T00:46:13.162Z,2.56
2022-12-25T00:48:40.451Z,2.69
2022-12-25T00:51:08.887Z,2.59
2022-12-25T00:53:35.412Z,2.62
2022-12-25T00:56:05.030Z,2.74
2022-12-25T00:58:33.486Z,2.79
2022-12-25T01:01:00.168Z,2.65
2022-12-25T01:03:26.909Z,2.60
2022-12-25T01:06:02.381Z,2.83
2022-12-25T01:08:30.787Z,2.68
2022-12-25T01:10:59.571Z,2.72
2022-12-25T01:13:26.305Z,2.88
2022-12-25T01:15:52.866Z,2.69
2022-12-25T01:18:20.248Z,2.76
2022-12-25T01:20:47.304Z,2.81
2022-12-25T01:23:14.383Z,2.75
2022-12-25T01:25:41.366Z,2.65
2022-12-25T01:28:08.246Z,2.80
2022-12-25T01:30:35.600Z,2.78
2022-12-25T01:33:02.176Z,2.78
2022-12-25T01:35:28.731Z,2.74
2022-12-25T01:37:55.597Z,2.77
2022-12-25T01:40:22.206Z,2.70
2022-12-25T01:42:48.723Z,2.71
2022-12-25T01:45:33.838Z,2.82
2022-12-25T01:48:08.696Z,2.95
2022-12-25T01:50:39.222Z,2.96
2022-12-25T01:53:06.926Z,2.90
2022-12-25T01:55:35.362Z,3.03
2022-12-25T01:58:02.764Z,3.12
2022-12-25T02:00:29.325Z,3.06
2022-12-25T02:02:59.598Z,2.97
2022-12-25T02:05:31.894Z,2.97
2022-12-25T02:08:02.191Z,2.97
2022-12-25T02:10:29.454Z,3.00
2022-12-25T02:12:56.287Z,2.92
2022-12-25T02:15:30.386Z,2.99
2022-12-25T02:18:02.926Z,2.98
2022-12-25T02:20:41.550Z,3.02
2022-12-25T02:23:30.012Z,3.21
2022-12-25T02:26:23.892Z,3.12
2022-12-25T02:29:03.516Z,3.10
2022-12-25T02:31:41.196Z,3.07
2022-12-25T02:34:17.240Z,3.11
2022-12-25T02:36:56.389Z,3.06
2022-12-25T02:39:57.967Z,3.07
2022-12-25T02:43:04.037Z,3.10
2022-12-25T02:45:59.243Z,3.11
2022-12-25T02:48:49.073Z,3.10
2022-12-25T02:51:45.761Z,3.18
2022-12-25T02:54:36.651Z,3.17
2022-12-25T02:57:25.998Z,3.20
2022-12-25T03:00:14.986Z,3.21
2022-12-25T03:03:02.161Z,3.23
2022-12-25T03:05:50.915Z,3.24
2022-12-25T03:08:23.194Z,3.31
2022-12-25T03:11:15.736Z,3.24
2022-12-25T03:13:46.475Z,3.22
2022-12-25T03:16:31.699Z,3.14
2022-12-25T03:18:59.516Z,3.14
2022-12-25T03:21:44.691Z,3.11
2022-12-25T03:24:30.091Z,3.06
2022-12-25T03:26:57.552Z,3.07
2022-12-25T03:29:51.449Z,3.10
2022-12-25T03:32:40.989Z,3.14
2022-12-25T03:35:25.788Z,3.13
2022-12-25T03:38:24.391Z,3.19
2022-12-25T03:41:33.724Z,3.15
2022-12-25T03:44:46.452Z,3.21
2022-12-25T03:47:46.017Z,3.17
2022-12-25T03:50:55.034Z,3.24
2022-12-25T03:53:58.203Z,3.26
2022-12-25T03:56:44.650Z,3.39
2022-12-25T03:59:29.859Z,3.40
2022-12-25T04:02:15.207Z,3.40
2022-12-25T04:05:00.688Z,3.43
2022-12-25T04:07:45.862Z,3.45
2022-12-25T04:10:31.109Z,3.52
2022-12-25T04:13:16.363Z,3.61
2022-12-25T04:16:01.611Z,3.52
2022-12-25T04:18:46.606Z,3.62
2022-12-25T04:21:31.782Z,3.52
2022-12-25T04:24:16.691Z,3.47
2022-12-25T04:27:01.961Z,3.56
2022-12-25T04:29:47.248Z,3.57
2022-12-25T04:32:32.432Z,3.66
2022-12-25T04:35:17.882Z,3.71
2022-12-25T04:37:44.491Z,3.65
2022-12-25T04:40:11.362Z,3.69
2022-12-25T04:42:37.973Z,3.76
2022-12-25T04:45:05.146Z,3.74
2022-12-25T04:47:33.292Z,3.80
2022-12-25T04:49:59.886Z,3.82
2022-12-25T04:52:26.490Z,3.67
2022-12-25T04:54:53.346Z,3.66
2022-12-25T04:57:20.009Z,3.72
2022-12-25T04:59:46.743Z,3.79
2022-12-25T05:02:13.415Z,3.81
2022-12-25T05:04:40.006Z,3.81
2022-12-25T05:07:06.552Z,3.81
2022-12-25T05:09:33.051Z,3.88
2022-12-25T05:11:59.663Z,3.93
2022-12-25T05:14:26.270Z,3.72
2022-12-25T05:16:52.818Z,3.70
2022-12-25T05:19:19.321Z,3.78
2022-12-25T05:21:45.861Z,3.75
2022-12-25T05:24:12.414Z,3.86
2022-12-25T05:26:38.945Z,3.94
2022-12-25T05:29:06.069Z,3.96
2022-12-25T05:31:32.907Z,3.91
2022-12-25T05:34:03.385Z,3.93
2022-12-25T05:36:29.861Z,3.98
2022-12-25T05:38:56.429Z,3.97
2022-12-25T05:41:23.050Z,3.84
2022-12-25T05:43:49.584Z,3.94
2022-12-25T05:46:16.351Z,3.78
2022-12-25T05:48:43.000Z,3.76
2022-12-25T05:51:12.059Z,3.95
2022-12-25T05:53:39.586Z,4.00
2022-12-25T05:56:07.683Z,4.03
2022-12-25T05:58:36.391Z,4.06
2022-12-25T06:01:03.252Z,4.10
2022-12-25T06:03:30.167Z,4.09
2022-12-25T06:05:56.851Z,4.10
2022-12-25T06:08:24.174Z,4.00
2022-12-25T06:10:50.675Z,3.94
2022-12-25T06:13:18.018Z,3.92
2022-12-25T06:15:44.578Z,3.91
2022-12-25T06:18:11.120Z,3.90
2022-12-25T06:20:40.971Z,3.79
2022-12-25T06:23:07.680Z,3.78
2022-12-25T06:25:34.279Z,3.83
2022-12-25T06:28:00.982Z,3.75
2022-12-25T06:30:27.453Z,3.71
2022-12-25T06:32:54.006Z,3.86
2022-12-25T06:35:20.557Z,3.87
2022-12-25T06:37:47.036Z,3.80
2022-12-25T06:40:13.984Z,3.79
2022-12-25T06:42:40.583Z,3.79
2022-12-25T06:45:07.838Z,3.77
2022-12-25T06:47:34.528Z,3.75
2022-12-25T06:50:01.070Z,3.65
2022-12-25T06:52:27.646Z,3.72
2022-12-25T06:54:54.376Z,3.76
2022-12-25T06:57:20.957Z,3.77
2022-12-25T06:59:51.394Z,3.75
2022-12-25T07:02:23.883Z,3.77
2022-12-25T07:04:51.392Z,3.79
2022-12-25T07:07:18.148Z,3.74
2022-12-25T07:09:44.868Z,3.73
2022-12-25T07:12:20.386Z,3.73
2022-12-25T07:14:50.134Z,3.73
2022-12-25T07:17:17.873Z,3.73
2022-12-25T07:19:45.449Z,3.77
2022-12-25T07:22:12.745Z,3.69
2022-12-25T07:24:39.245Z,3.83
2022-12-25T07:27:06.117Z,3.97
2022-12-25T07:29:32.796Z,4.04
2022-12-25T07:31:59.442Z,4.02
2022-12-25T07:34:26.436Z,4.11
2022-12-25T07:36:54.752Z,4.09
2022-12-25T07:39:21.413Z,4.04
2022-12-25T07:41:47.971Z,3.93
2022-12-25T07:44:15.042Z,3.94
2022-12-25T07:46:41.692Z,3.91
2022-12-25T07:49:08.173Z,3.99
2022-12-25T07:51:34.857Z,4.11
2022-12-25T07:54:01.521Z,4.13
2022-12-25T07:56:28.340Z,4.14
2022-12-25T07:58:54.970Z,4.07
2022-12-25T08:01:27.125Z,3.98
2022-12-25T08:03:56.491Z,4.04
2022-12-25T08:06:26.884Z,4.12
2022-12-25T08:08:53.445Z,4.11
2022-12-25T08:11:20.007Z,4.11
2022-12-25T08:13:46.557Z,4.13
2022-12-25T08:16:13.245Z,4.06
2022-12-25T08:18:40.663Z,4.02
2022-12-25T08:21:10.537Z,4.16
2022-12-25T08:23:39.540Z,4.16
2022-12-25T08:26:08.504Z,4.00
2022-12-25T08:28:36.098Z,4.04
2022-12-25T08:31:16.924Z,4.11
2022-12-25T08:33:44.310Z,4.22
2022-12-25T08:36:12.781Z,4.19
2022-12-25T08:38:39.680Z,4.22
2022-12-25T08:41:06.923Z,4.25
2022-12-25T08:43:33.457Z,4.21
2022-12-25T08:46:00.112Z,4.24
2022-12-25T08:48:27.550Z,4.20
2022-12-25T08:50:54.824Z,4.23
2022-12-25T08:53:21.595Z,4.29
2022-12-25T08:55:48.075Z,4.25
2022-12-25T08:58:14.767Z,4.31
2022-12-25T09:00:41.347Z,4.32
2022-12-25T09:03:07.971Z,4.30
2022-12-25T09:05:36.136Z,4.37
2022-12-25T09:08:02.869Z,4.37
2022-12-25T09:10:29.855Z,4.43
2022-12-25T09:12:56.450Z,4.38
2022-12-25T09:15:22.982Z,4.43
2022-12-25T09:17:49.457Z,4.47
2022-12-25T09:20:15.954Z,4.45
2022-12-25T09:22:42.501Z,4.48
2022-12-25T09:25:09.490Z,4.51
2022-12-25T09:27:36.229Z,4.49
2022-12-25T09:30:03.212Z,4.58
2022-12-25T09:32:29.737Z,4.58
2022-12-25T09:34:56.215Z,4.58
2022-12-25T09:37:22.750Z,4.65
2022-12-25T09:39:49.309Z,4.56
2022-12-25T09:42:34.616Z,4.47
2022-12-25T09:45:05.852Z,4.54
2022-12-25T09:47:35.981Z,4.51
2022-12-25T09:50:13.933Z,4.59
2022-12-25T09:52:55.233Z,4.46
2022-12-25T09:55:24.598Z,4.23
2022-12-25T09:57:59.432Z,4.36
2022-12-25T10:00:33.676Z,4.60
2022-12-25T10:03:22.132Z,4.70
2022-12-25T10:06:07.184Z,4.71
2022-12-25T10:08:54.254Z,4.72
2022-12-25T10:11:52.978Z,4.83
2022-12-25T10:14:41.223Z,4.78
2022-12-25T10:17:33.229Z,4.63
2022-12-25T10:20:07.995Z,4.54
2022-12-25T10:22:40.691Z,4.56
2022-12-25T10:25:17.085Z,4.52
2022-12-25T10:27:43.702Z,4.68
2022-12-25T10:30:24.692Z,4.86
2022-12-25T10:32:52.879Z,4.82
2022-12-25T10:35:23.113Z,4.95
2022-12-25T10:37:58.681Z,5.12
2022-12-25T10:40:31.377Z,5.20
2022-12-25T10:43:08.163Z,5.14
2022-12-25T10:45:46.687Z,5.13
2022-12-25T10:48:28.013Z,5.12
2022-12-25T10:50:55.857Z,4.99
2022-12-25T10:53:25.985Z,5.08
2022-12-25T10:56:00.052Z,5.12
2022-12-25T10:58:27.585Z,5.04
2022-12-25T11:01:02.442Z,5.14
2022-12-25T11:03:35.930Z,5.08
2022-12-25T11:06:03.020Z,5.18
2022-12-25T11:08:33.201Z,5.31
2022-12-25T11:11:08.176Z,5.30
2022-12-25T11:13:40.818Z,5.18
2022-12-25T11:16:13.133Z,5.21
2022-12-25T11:18:51.498Z,5.28
2022-12-25T11:21:30.479Z,5.30
2022-12-25T11:24:01.610Z,5.16
2022-12-25T11:26:30.310Z,5.03
2022-12-25T11:28:57.724Z,4.99
2022-12-25T11:31:39.510Z,5.06
2022-12-25T11:34:28.743Z,5.23
2022-12-25T11:36:55.746Z,5.24
2022-12-25T11:39:36.157Z,5.25
2022-12-25T11:42:08.619Z,5.18
2022-12-25T11:44:46.701Z,5.21
2022-12-25T11:47:27.834Z,5.23
2022-12-25T11:50:38.697Z,5.19
2022-12-25T11:53:27.434Z,5.08
2022-12-25T11:56:10.316Z,5.09
2022-12-25T11:58:44.189Z,5.16
2022-12-25T12:01:18.965Z,5.21
2022-12-25T12:03:45.811Z,4.89
2022-12-25T12:06:44.401Z,4.87
2022-12-25T12:09:47.656Z,4.79
2022-12-25T12:12:26.831Z,4.81
2022-12-25T12:15:07.433Z,4.94
2022-12-25T12:17:34.116Z,4.76
2022-12-25T12:20:11.995Z,4.79
2022-12-25T12:22:39.349Z,4.83
2022-12-25T12:25:07.985Z,4.79
2022-12-25T12:27:40.485Z,4.76
2022-12-25T12:30:28.083Z,4.76
2022-12-25T12:33:01.258Z,4.75
2022-12-25T12:35:34.213Z,4.79
2022-12-25T12:38:04.630Z,4.86
2022-12-25T12:40:33.728Z,4.97
2022-12-25T12:43:00.823Z,5.01
2022-12-25T12:45:32.282Z,5.02
2022-12-25T12:47:59.243Z,5.07
2022-12-25T12:50:41.064Z,5.15
2022-12-25T12:53:16.637Z,5.12
2022-12-25T12:55:43.183Z,5.10
2022-12-25T12:58:25.146Z,5.15
2022-12-25T13:01:26.851Z,4.89
2022-12-25T13:04:28.686Z,5.03
2022-12-25T13:06:59.227Z,5.05
2022-12-25T13:09:52.065Z,4.96
2022-12-25T13:12:20.224Z,4.96
2022-12-25T13:14:48.181Z,4.83
2022-12-25T13:17:18.792Z,4.88
2022-12-25T13:19:46.221Z,4.99
2022-12-25T13:22:30.997Z,5.08
2022-12-25T13:24:59.803Z,5.07
2022-12-25T13:27:29.345Z,5.04
2022-12-25T13:29:56.758Z,5.08
2022-12-25T13:32:29.905Z,5.11
2022-12-25T13:34:57.173Z,5.09
2022-12-25T13:37:27.114Z,5.10
2022-12-25T13:39:55.553Z,5.01
2022-12-25T13:42:33.832Z,5.03
2022-12-25T13:45:06.275Z,4.89
2022-12-25T13:47:34.000Z,4.88
2022-12-25T13:50:14.307Z,4.94
2022-12-25T13:52:40.820Z,4.93
2022-12-25T13:55:36.789Z,5.01
2022-12-25T13:58:05.907Z,5.00
2022-12-25T14:00:35.172Z,4.93
2022-12-25T14:03:04.402Z,4.90
2022-12-25T14:05:42.071Z,4.94
2022-12-25T14:08:16.113Z,5.02
2022-12-25T14:10:46.047Z,4.96
2022-12-25T14:13:14.634Z,5.04
2022-12-25T14:15:41.980Z,4.96
2022-12-25T14:18:15.712Z,5.06
2022-12-25T14:21:07.280Z,5.06
2022-12-25T14:23:54.435Z,5.11
2022-12-25T14:26:24.124Z,4.99
2022-12-25T14:28:54.252Z,5.04
2022-12-25T14:31:21.880Z,4.97
2022-12-25T14:33:49.164Z,5.06
2022-12-25T14:36:16.204Z,5.06
2022-12-25T14:38:44.273Z,4.82
2022-12-25T14:41:33.566Z,4.77
2022-12-25T14:44:02.495Z,4.79
2022-12-25T14:46:31.387Z,4.73
2022-12-25T14:49:02.976Z,4.66
2022-12-25T14:51:31.795Z,4.61
2022-12-25T14:54:01.980Z,4.66
2022-12-25T14:56:38.147Z,4.57
2022-12-25T14:59:09.641Z,4.53
2022-12-25T15:01:41.929Z,4.51
2022-12-25T15:04:11.577Z,4.53
2022-12-25T15:06:54.905Z,4.47
2022-12-25T15:09:22.977Z,4.53
2022-12-25T15:11:51.312Z,4.49
2022-12-25T15:14:17.926Z,4.41
2022-12-25T15:16:51.249Z,4.43
2022-12-25T15:19:25.397Z,4.47
2022-12-25T15:21:53.941Z,4.39
2022-12-25T15:24:20.430Z,4.45
2022-12-25T15:26:47.442Z,4.39
2022-12-25T15:29:13.920Z,4.42
2022-12-25T15:31:41.237Z,4.36
2022-12-25T15:34:17.265Z,4.38
2022-12-25T15:36:43.770Z,4.36
2022-12-25T15:39:10.297Z,4.38
2022-12-25T15:41:56.875Z,4.43
2022-12-25T15:44:24.249Z,4.27
2022-12-25T15:46:51.001Z,4.36
2022-12-25T15:49:18.047Z,4.32
2022-12-25T15:51:45.578Z,4.34
2022-12-25T15:54:12.575Z,4.37
2022-12-25T15:56:45.576Z,4.36
2022-12-25T15:59:13.844Z,4.37
2022-12-25T16:01:47.297Z,4.39
2022-12-25T16:04:13.975Z,4.41
2022-12-25T16:06:40.811Z,4.43
2022-12-25T16:09:09.551Z,4.40
2022-12-25T16:11:36.134Z,4.43
2022-12-25T16:14:02.701Z,4.42
2022-12-25T16:16:29.259Z,4.39
2022-12-25T16:18:55.760Z,4.41
2022-12-25T16:21:23.840Z,4.41
2022-12-25T16:23:50.460Z,4.42
2022-12-25T16:26:17.374Z,4.47
2022-12-25T16:28:43.956Z,4.47
2022-12-25T16:31:11.741Z,4.45
2022-12-25T16:33:38.461Z,4.45
2022-12-25T16:36:05.994Z,4.43
2022-12-25T16:38:32.573Z,4.49
2022-12-25T16:41:00.662Z,4.50
2022-12-25T16:43:27.843Z,4.50
2022-12-25T16:45:54.480Z,4.56
2022-12-25T16:48:21.205Z,4.58
2022-12-25T16:50:47.719Z,4.64
2022-12-25T16:53:14.275Z,4.59
2022-12-25T16:55:40.883Z,4.58
2022-12-25T16:58:07.683Z,4.65
2022-12-25T17:00:34.220Z,4.55
2022-12-25T17:03:01.357Z,4.49
2022-12-25T17:05:28.137Z,4.55
2022-12-25T17:07:54.637Z,4.59
2022-12-25T17:10:21.822Z,4.62
2022-12-25T17:12:48.318Z,4.61
2022-12-25T17:15:14.913Z,4.62
2022-12-25T17:17:41.762Z,4.60
2022-12-25T17:20:08.890Z,4.63
2022-12-25T17:22:35.429Z,4.65
2022-12-25T17:25:02.068Z,4.66
2022-12-25T17:27:28.621Z,4.57
2022-12-25T17:29:55.202Z,4.58
2022-12-25T17:32:21.893Z,4.62
2022-12-25T17:34:48.512Z,4.54
2022-12-25T17:37:15.185Z,4.50
2022-12-25T17:39:41.884Z,4.54
2022-12-25T17:42:08.349Z,4.43
2022-12-25T17:44:34.912Z,4.49
2022-12-25T17:47:01.699Z,4.49
2022-12-25T17:49:28.275Z,4.49
2022-12-25T17:51:54.944Z,4.43
2022-12-25T17:54:21.504Z,4.42
2022-12-25T17:56:48.281Z,4.42
2022-12-25T17:59:18.617Z,4.40
2022-12-25T18:01:46.865Z,4.35
2022-12-25T18:04:13.979Z,4.33
2022-12-25T18:06:41.688Z,4.32
2022-12-25T18:09:09.861Z,4.31
2022-12-25T18:11:39.414Z,4.36
2022-12-25T18:14:07.957Z,4.31
2022-12-25T18:16:38.416Z,4.27
2022-12-25T18:19:05.844Z,4.29
2022-12-25T18:21:32.478Z,4.24
2022-12-25T18:23:58.972Z,4.24
2022-12-25T18:26:26.140Z,4.22
2022-12-25T18:28:52.933Z,4.23
2022-12-25T18:31:22.348Z,4.23
2022-12-25T18:33:50.178Z,4.21
2022-12-25T18:36:20.390Z,4.21
2022-12-25T18:38:48.922Z,4.28
2022-12-25T18:41:16.095Z,4.24
2022-12-25T18:43:52.320Z,4.21
2022-12-25T18:46:25.880Z,4.18
2022-12-25T18:48:56.160Z,4.19
2022-12-25T18:51:22.942Z,4.19
2022-12-25T18:53:49.855Z,4.20
2022-12-25T18:56:18.242Z,4.23
2022-12-25T18:58:46.358Z,4.14
2022-12-25T19:01:17.320Z,4.12
2022-12-25T19:03:45.410Z,4.10
2022-12-25T19:06:19.837Z,4.13
2022-12-25T19:08:46.636Z,4.12
2022-12-25T19:11:13.359Z,4.14
2022-12-25T19:13:40.020Z,4.09
2022-12-25T19:16:06.713Z,4.12
2022-12-25T19:18:33.291Z,4.14
2022-12-25T19:21:04.674Z,4.15
2022-12-25T19:23:31.536Z,4.13
2022-12-25T19:25:58.203Z,4.12
2022-12-25T19:28:25.355Z,4.05
2022-12-25T19:30:54.020Z,4.10
2022-12-25T19:33:21.830Z,4.04
2022-12-25T19:35:49.035Z,3.99
2022-12-25T19:38:16.483Z,4.00
2022-12-25T19:41:00.752Z,3.96
2022-12-25T19:43:33.734Z,4.01
2022-12-25T19:46:01.861Z,4.00
2022-12-25T19:48:29.408Z,4.11
2022-12-25T19:50:56.038Z,4.07
2022-12-25T19:53:25.436Z,4.03
2022-12-25T19:55:53.675Z,4.18
2022-12-25T19:58:21.727Z,4.23
2022-12-25T20:01:05.177Z,4.12
2022-12-25T20:03:33.169Z,4.10
2022-12-25T20:06:00.171Z,4.14
2022-12-25T20:08:26.673Z,4.12
2022-12-25T20:10:53.292Z,4.07
2022-12-25T20:13:20.622Z,4.08
2022-12-25T20:15:47.272Z,4.05
2022-12-25T20:18:14.492Z,4.05
2022-12-25T20:20:41.241Z,4.00
2022-12-25T20:23:07.781Z,3.97
2022-12-25T20:25:34.523Z,3.91
2022-12-25T20:28:01.048Z,3.85
2022-12-25T20:30:27.681Z,3.95
2022-12-25T20:32:55.292Z,3.90
2022-12-25T20:35:21.842Z,3.89
2022-12-25T20:37:48.545Z,3.83
2022-12-25T20:40:16.260Z,3.84
2022-12-25T20:42:43.469Z,3.79
2022-12-25T20:45:12.549Z,3.82
2022-12-25T20:47:39.274Z,3.87
2022-12-25T20:50:06.521Z,3.83
2022-12-25T20:52:32.991Z,3.83
2022-12-25T20:54:59.495Z,3.84
2022-12-25T20:57:26.132Z,3.81
2022-12-25T20:59:53.535Z,3.88
2022-12-25T21:02:35.977Z,3.95
2022-12-25T21:05:05.088Z,3.81
2022-12-25T21:07:31.625Z,3.82
2022-12-25T21:09:59.220Z,3.88
2022-12-25T21:12:26.132Z,3.88
2022-12-25T21:14:52.621Z,3.93
2022-12-25T21:17:19.246Z,3.78
2022-12-25T21:19:45.849Z,3.72
2022-12-25T21:22:12.754Z,3.72
2022-12-25T21:24:39.244Z,3.61
2022-12-25T21:27:05.740Z,3.65
2022-12-25T21:29:32.298Z,3.58
2022-12-25T21:32:17.225Z,3.58
2022-12-25T21:34:43.899Z,3.60
2022-12-25T21:37:10.377Z,3.63
2022-12-25T21:39:37.019Z,3.64
2022-12-25T21:42:04.725Z,3.70
2022-12-25T21:44:31.279Z,3.65
2022-12-25T21:46:57.876Z,3.57
2022-12-25T21:49:43.054Z,3.64
2022-12-25T21:52:09.828Z,3.63
2022-12-25T21:54:36.776Z,3.63
2022-12-25T21:57:03.566Z,3.61
2022-12-25T21:59:30.164Z,3.60
2022-12-25T22:01:56.836Z,3.70
2022-12-25T22:04:23.717Z,3.71
2022-12-25T22:07:09.253Z,3.70
2022-12-25T22:09:36.008Z,3.67
2022-12-25T22:12:21.841Z,3.69
2022-12-25T22:14:54.945Z,3.68
2022-12-25T22:17:45.538Z,3.70
2022-12-25T22:20:15.774Z,3.70
2022-12-25T22:22:42.729Z,3.64
2022-12-25T22:25:10.971Z,3.69
2022-12-25T22:27:39.292Z,3.71
2022-12-25T22:30:08.269Z,3.70
2022-12-25T22:32:34.915Z,3.72
2022-12-25T22:35:01.496Z,3.71
2022-12-25T22:37:28.133Z,3.78
2022-12-25T22:39:54.732Z,3.76
2022-12-25T22:42:21.610Z,3.78
2022-12-25T22:44:48.292Z,3.82
2022-12-25T22:47:15.449Z,3.79
2022-12-25T22:49:42.078Z,3.82
2022-12-25T22:52:09.918Z,3.82
2022-12-25T22:54:36.919Z,3.82
2022-12-25T22:57:03.775Z,3.86
2022-12-25T22:59:30.381Z,3.84
2022-12-25T23:01:57.092Z,3.85
2022-12-25T23:04:24.053Z,3.89
2022-12-25T23:06:51.371Z,3.88
2022-12-25T23:09:24.793Z,3.88
2022-12-25T23:11:51.661Z,3.88
2022-12-25T23:14:36.757Z,3.85
2022-12-25T23:17:03.325Z,3.84
2022-12-25T23:19:48.538Z,3.85
2022-12-25T23:22:33.981Z,3.79
2022-12-25T23:25:18.937Z,3.80
2022-12-25T23:27:46.048Z,3.77
2022-12-25T23:30:15.614Z,3.76
2022-12-25T23:32:44.016Z,3.77
2022-12-25T23:35:11.503Z,3.76
2022-12-25T23:37:38.081Z,3.77
2022-12-25T23:40:05.182Z,3.76
2022-12-25T23:42:31.664Z,3.74
2022-12-25T23:44:58.208Z,3.76
2022-12-25T23:47:24.740Z,3.78
2022-12-25T23:49:51.365Z,3.79
2022-12-25T23:52:17.854Z,3.74
2022-12-25T23:54:44.355Z,3.79
2022-12-25T23:57:10.821Z,3.78
2022-12-25T23:59:37.282Z,3.80
